DAL2134 KSLC-KIAH
Flight info
| Callsign | DAL2134 |
|---|---|
| Flight time | N/A |
| Altitude | 35000 |
| Route | RUGGD3 KIERA HBU PNH MQP GUSHR3 |
| Aircraft | A21N/M-SDE2E3FGHIRWXY/LB1 |
Departure
| Time | 2026-05-06 00:44 |
|---|---|
| Airport | Salt Lake City International Airport (KSLC) |
Arrival
| Time | N/A |
|---|---|
| Airport | George Bush Intercontinental Airport (KIAH) |
| Time | Latitude | Longitude | Altitude | Speed | Heading |
|---|---|---|---|---|---|
| 2026-05-06 00:16 | 40.78598 | -111.98952 | 4238 ft | 0 kts | 174° |
| 2026-05-06 00:33 | 40.78606 | -111.98953 | 4238 ft | 3 kts | 174° |
| 2026-05-06 00:33 | 40.78624 | -111.98955 | 4236 ft | 3 kts | 174° |
| 2026-05-06 00:34 | 40.78640 | -111.98957 | 4237 ft | 3 kts | 174° |
| 2026-05-06 00:34 | 40.78658 | -111.98953 | 4238 ft | 3 kts | 227° |
| 2026-05-06 00:34 | 40.78664 | -111.98937 | 4238 ft | 0 kts | 265° |
| 2026-05-06 00:36 | 40.78664 | -111.98938 | 4238 ft | 1 kts | 269° |
| 2026-05-06 00:36 | 40.78667 | -111.98952 | 4238 ft | 3 kts | 284° |
| 2026-05-06 00:37 | 40.78670 | -111.98987 | 4237 ft | 5 kts | 271° |
| 2026-05-06 00:37 | 40.78669 | -111.99043 | 4237 ft | 7 kts | 267° |
| 2026-05-06 00:37 | 40.78664 | -111.99116 | 4238 ft | 9 kts | 264° |
| 2026-05-06 00:37 | 40.78658 | -111.99194 | 4238 ft | 8 kts | 265° |
| 2026-05-06 00:38 | 40.78654 | -111.99263 | 4238 ft | 7 kts | 265° |
| 2026-05-06 00:38 | 40.78650 | -111.99324 | 4238 ft | 6 kts | 265° |
| 2026-05-06 00:38 | 40.78646 | -111.99387 | 4238 ft | 7 kts | 265° |
| 2026-05-06 00:38 | 40.78630 | -111.99445 | 4238 ft | 7 kts | 224° |
| 2026-05-06 00:39 | 40.78581 | -111.99456 | 4238 ft | 8 kts | 177° |
| 2026-05-06 00:39 | 40.78528 | -111.99451 | 4238 ft | 8 kts | 175° |
| 2026-05-06 00:39 | 40.78470 | -111.99444 | 4237 ft | 8 kts | 175° |
| 2026-05-06 00:39 | 40.78412 | -111.99437 | 4238 ft | 9 kts | 175° |
| 2026-05-06 00:40 | 40.78349 | -111.99428 | 4238 ft | 9 kts | 173° |
| 2026-05-06 00:40 | 40.78282 | -111.99421 | 4238 ft | 10 kts | 177° |
| 2026-05-06 00:40 | 40.78212 | -111.99413 | 4238 ft | 10 kts | 174° |
| 2026-05-06 00:40 | 40.78141 | -111.99406 | 4238 ft | 10 kts | 180° |
| 2026-05-06 00:41 | 40.78067 | -111.99419 | 4237 ft | 11 kts | 193° |
| 2026-05-06 00:41 | 40.77992 | -111.99437 | 4237 ft | 11 kts | 184° |
| 2026-05-06 00:41 | 40.77913 | -111.99432 | 4237 ft | 12 kts | 174° |
| 2026-05-06 00:41 | 40.77833 | -111.99422 | 4238 ft | 12 kts | 174° |
| 2026-05-06 00:42 | 40.77753 | -111.99413 | 4238 ft | 11 kts | 174° |
| 2026-05-06 00:42 | 40.77675 | -111.99404 | 4239 ft | 11 kts | 175° |
| 2026-05-06 00:42 | 40.77596 | -111.99395 | 4239 ft | 12 kts | 175° |
| 2026-05-06 00:42 | 40.77543 | -111.99403 | 4238 ft | 4 kts | 206° |
| 2026-05-06 00:43 | 40.77527 | -111.99432 | 4239 ft | 6 kts | 252° |
| 2026-05-06 00:43 | 40.77526 | -111.99505 | 4239 ft | 10 kts | 289° |
| 2026-05-06 00:43 | 40.77582 | -111.99554 | 4240 ft | 11 kts | 347° |
| 2026-05-06 00:43 | 40.77817 | -111.99586 | 4238 ft | 66 kts | 355° |
| 2026-05-06 00:44 | 40.78222 | -111.99634 | 4236 ft | 110 kts | 355° |
| 2026-05-06 00:44 | 40.79207 | -111.99752 | 4237 ft | 172 kts | 354° |
| 2026-05-06 00:44 | 40.80523 | -111.99909 | 4480 ft | 194 kts | 354° |
| 2026-05-06 00:44 | 40.81939 | -112.00014 | 4842 ft | 215 kts | 357° |
| 2026-05-06 00:45 | 40.83500 | -112.00090 | 5131 ft | 231 kts | 357° |
| 2026-05-06 00:45 | 40.85142 | -112.00183 | 5609 ft | 239 kts | 356° |
| 2026-05-06 00:45 | 40.86824 | -112.00291 | 6127 ft | 249 kts | 356° |
| 2026-05-06 00:45 | 40.88636 | -112.00419 | 6405 ft | 270 kts | 356° |
| 2026-05-06 00:46 | 40.90545 | -112.00559 | 7013 ft | 278 kts | 356° |
| 2026-05-06 00:46 | 40.92490 | -112.00705 | 7739 ft | 281 kts | 356° |
| 2026-05-06 00:46 | 40.94423 | -112.00852 | 8460 ft | 284 kts | 356° |
| 2026-05-06 00:46 | 40.96410 | -112.01004 | 9187 ft | 287 kts | 356° |
| 2026-05-06 00:47 | 40.98420 | -112.01158 | 9920 ft | 290 kts | 356° |
| 2026-05-06 00:47 | 41.00464 | -112.01191 | 10503 ft | 301 kts | 4° |
| 2026-05-06 00:47 | 41.02589 | -112.00641 | 10781 ft | 322 kts | 19° |
| 2026-05-06 00:47 | 41.04633 | -111.99235 | 11038 ft | 341 kts | 36° |
| 2026-05-06 00:48 | 41.06393 | -111.97005 | 11289 ft | 359 kts | 49° |
| 2026-05-06 00:48 | 41.07872 | -111.94257 | 11511 ft | 374 kts | 62° |
| 2026-05-06 00:48 | 41.08704 | -111.90943 | 11741 ft | 386 kts | 83° |
| 2026-05-06 00:48 | 41.08557 | -111.87388 | 12100 ft | 392 kts | 104° |
| 2026-05-06 00:49 | 41.07450 | -111.84081 | 12396 ft | 396 kts | 125° |
| 2026-05-06 00:49 | 41.05544 | -111.81441 | 12691 ft | 399 kts | 141° |
| 2026-05-06 00:49 | 41.03374 | -111.79203 | 13090 ft | 401 kts | 142° |
| 2026-05-06 00:49 | 41.01172 | -111.76922 | 13527 ft | 402 kts | 141° |
| 2026-05-06 00:50 | 40.98998 | -111.74578 | 13935 ft | 404 kts | 140° |
| 2026-05-06 00:50 | 40.96834 | -111.72174 | 14329 ft | 406 kts | 140° |
| 2026-05-06 00:50 | 40.94680 | -111.69738 | 14730 ft | 408 kts | 140° |
| 2026-05-06 00:50 | 40.92522 | -111.67274 | 15097 ft | 411 kts | 139° |
| 2026-05-06 00:51 | 40.90355 | -111.64789 | 15450 ft | 413 kts | 139° |
| 2026-05-06 00:51 | 40.88210 | -111.62323 | 15770 ft | 416 kts | 139° |
| 2026-05-06 00:51 | 40.86020 | -111.59805 | 16073 ft | 418 kts | 139° |
| 2026-05-06 00:51 | 40.83818 | -111.57273 | 16430 ft | 420 kts | 139° |
| 2026-05-06 00:52 | 40.81610 | -111.54735 | 16748 ft | 422 kts | 139° |
| 2026-05-06 00:52 | 40.79388 | -111.52184 | 17000 ft | 424 kts | 139° |
| 2026-05-06 00:52 | 40.77157 | -111.49623 | 17216 ft | 426 kts | 139° |
| 2026-05-06 00:52 | 40.74909 | -111.47048 | 17480 ft | 428 kts | 139° |
| 2026-05-06 00:53 | 40.72661 | -111.44468 | 17746 ft | 429 kts | 139° |
| 2026-05-06 00:53 | 40.70552 | -111.41670 | 17961 ft | 431 kts | 130° |
| 2026-05-06 00:53 | 40.68847 | -111.38421 | 18167 ft | 432 kts | 118° |
| 2026-05-06 00:53 | 40.67596 | -111.34814 | 18336 ft | 434 kts | 112° |
| 2026-05-06 00:54 | 40.66527 | -111.31142 | 18524 ft | 435 kts | 110° |
| 2026-05-06 00:54 | 40.65468 | -111.27408 | 18729 ft | 436 kts | 110° |
| 2026-05-06 00:54 | 40.64402 | -111.23666 | 18899 ft | 437 kts | 110° |
| 2026-05-06 00:54 | 40.63324 | -111.19905 | 19004 ft | 439 kts | 111° |
| 2026-05-06 00:55 | 40.62238 | -111.16139 | 19130 ft | 440 kts | 111° |
| 2026-05-06 00:55 | 40.61148 | -111.12370 | 19258 ft | 441 kts | 111° |
| 2026-05-06 00:55 | 40.60054 | -111.08603 | 19348 ft | 442 kts | 111° |
| 2026-05-06 00:55 | 40.58953 | -111.04816 | 19436 ft | 443 kts | 111° |
| 2026-05-06 00:56 | 40.57850 | -111.01029 | 19490 ft | 444 kts | 111° |
| 2026-05-06 00:56 | 40.56743 | -110.97236 | 19525 ft | 445 kts | 111° |
| 2026-05-06 00:56 | 40.55630 | -110.93429 | 19537 ft | 446 kts | 111° |
| 2026-05-06 00:56 | 40.54515 | -110.89620 | 19575 ft | 447 kts | 111° |
| 2026-05-06 00:57 | 40.53398 | -110.85812 | 19689 ft | 446 kts | 111° |
| 2026-05-06 00:57 | 40.52281 | -110.82005 | 19784 ft | 446 kts | 111° |
| 2026-05-06 00:57 | 40.51176 | -110.78249 | 19770 ft | 447 kts | 111° |
| 2026-05-06 00:57 | 40.50052 | -110.74433 | 19789 ft | 448 kts | 111° |
| 2026-05-06 00:58 | 40.48925 | -110.70612 | 19806 ft | 449 kts | 111° |
| 2026-05-06 00:58 | 40.47798 | -110.66793 | 19865 ft | 448 kts | 111° |
| 2026-05-06 00:58 | 40.46668 | -110.62975 | 19898 ft | 449 kts | 111° |
| 2026-05-06 00:58 | 40.45537 | -110.59157 | 19925 ft | 449 kts | 111° |
| 2026-05-06 00:59 | 40.44406 | -110.55341 | 20014 ft | 448 kts | 111° |
| 2026-05-06 00:59 | 40.43275 | -110.51534 | 20131 ft | 447 kts | 111° |
| 2026-05-06 00:59 | 40.42144 | -110.47721 | 20221 ft | 447 kts | 111° |
| 2026-05-06 00:59 | 40.41058 | -110.43900 | 20297 ft | 448 kts | 110° |
| 2026-05-06 01:00 | 40.39986 | -110.40058 | 20364 ft | 448 kts | 110° |
| 2026-05-06 01:00 | 40.38918 | -110.36222 | 20464 ft | 448 kts | 110° |
| 2026-05-06 01:00 | 40.37847 | -110.32380 | 20598 ft | 449 kts | 110° |
| 2026-05-06 01:00 | 40.36770 | -110.28533 | 20762 ft | 449 kts | 110° |
| 2026-05-06 01:01 | 40.35691 | -110.24682 | 20940 ft | 450 kts | 110° |
| 2026-05-06 01:01 | 40.34608 | -110.20824 | 21127 ft | 451 kts | 110° |
| 2026-05-06 01:01 | 40.33522 | -110.16960 | 21331 ft | 452 kts | 110° |
| 2026-05-06 01:01 | 40.32445 | -110.13139 | 21551 ft | 453 kts | 110° |
| 2026-05-06 01:02 | 40.31348 | -110.09250 | 21788 ft | 455 kts | 110° |
| 2026-05-06 01:02 | 40.30246 | -110.05348 | 22055 ft | 456 kts | 110° |
| 2026-05-06 01:02 | 40.29141 | -110.01447 | 22358 ft | 457 kts | 110° |
| 2026-05-06 01:02 | 40.28031 | -109.97529 | 22672 ft | 459 kts | 110° |
| 2026-05-06 01:03 | 40.26918 | -109.93606 | 22951 ft | 461 kts | 110° |
| 2026-05-06 01:03 | 40.25784 | -109.89667 | 23094 ft | 461 kts | 112° |
| 2026-05-06 01:03 | 40.24431 | -109.85912 | 23111 ft | 461 kts | 120° |
| 2026-05-06 01:03 | 40.22674 | -109.82397 | 23110 ft | 462 kts | 126° |
| 2026-05-06 01:04 | 40.20746 | -109.79025 | 23109 ft | 462 kts | 128° |
| 2026-05-06 01:04 | 40.18743 | -109.75734 | 23109 ft | 462 kts | 129° |
| 2026-05-06 01:04 | 40.16704 | -109.72471 | 23109 ft | 462 kts | 129° |
| 2026-05-06 01:04 | 40.14664 | -109.69224 | 23109 ft | 462 kts | 129° |
| 2026-05-06 01:05 | 40.12630 | -109.65972 | 23109 ft | 462 kts | 129° |
| 2026-05-06 01:05 | 40.10605 | -109.62714 | 23110 ft | 462 kts | 129° |
| 2026-05-06 01:05 | 40.08584 | -109.59442 | 23109 ft | 462 kts | 129° |
| 2026-05-06 01:05 | 40.06572 | -109.56176 | 23109 ft | 462 kts | 129° |
| 2026-05-06 01:06 | 40.04581 | -109.52940 | 23295 ft | 464 kts | 129° |
| 2026-05-06 01:06 | 40.02557 | -109.49649 | 23626 ft | 465 kts | 129° |
| 2026-05-06 01:06 | 40.00524 | -109.46346 | 23921 ft | 467 kts | 129° |
| 2026-05-06 01:06 | 39.98483 | -109.43034 | 24198 ft | 469 kts | 129° |
| 2026-05-06 01:07 | 39.96433 | -109.39713 | 24465 ft | 471 kts | 129° |
| 2026-05-06 01:07 | 39.94373 | -109.36380 | 24732 ft | 473 kts | 129° |
| 2026-05-06 01:07 | 39.92307 | -109.33041 | 24975 ft | 475 kts | 129° |
| 2026-05-06 01:07 | 39.90230 | -109.29687 | 25220 ft | 477 kts | 129° |
| 2026-05-06 01:08 | 39.88140 | -109.26318 | 25444 ft | 479 kts | 129° |
| 2026-05-06 01:08 | 39.86045 | -109.22943 | 25773 ft | 478 kts | 129° |
| 2026-05-06 01:08 | 39.83956 | -109.19582 | 26107 ft | 477 kts | 129° |
| 2026-05-06 01:08 | 39.81867 | -109.16224 | 26394 ft | 477 kts | 129° |
| 2026-05-06 01:09 | 39.79779 | -109.12872 | 26672 ft | 477 kts | 129° |
| 2026-05-06 01:09 | 39.77689 | -109.09520 | 26970 ft | 477 kts | 129° |
| 2026-05-06 01:09 | 39.75601 | -109.06175 | 27254 ft | 476 kts | 129° |
| 2026-05-06 01:09 | 39.73516 | -109.02836 | 27545 ft | 475 kts | 129° |
| 2026-05-06 01:10 | 39.71431 | -108.99504 | 27821 ft | 475 kts | 129° |
| 2026-05-06 01:10 | 39.69347 | -108.96176 | 28074 ft | 475 kts | 129° |
| 2026-05-06 01:10 | 39.67262 | -108.92848 | 28308 ft | 475 kts | 129° |
| 2026-05-06 01:10 | 39.65170 | -108.89515 | 28502 ft | 476 kts | 129° |
| 2026-05-06 01:11 | 39.63078 | -108.86184 | 28678 ft | 477 kts | 129° |
| 2026-05-06 01:11 | 39.60977 | -108.82844 | 28893 ft | 478 kts | 129° |
| 2026-05-06 01:11 | 39.58878 | -108.79508 | 29123 ft | 477 kts | 129° |
| 2026-05-06 01:11 | 39.56808 | -108.76224 | 29401 ft | 476 kts | 129° |
| 2026-05-06 01:12 | 39.54714 | -108.72904 | 29712 ft | 474 kts | 129° |
| 2026-05-06 01:12 | 39.52629 | -108.69602 | 29984 ft | 473 kts | 129° |
| 2026-05-06 01:12 | 39.50550 | -108.66312 | 30233 ft | 472 kts | 129° |
| 2026-05-06 01:12 | 39.48467 | -108.63022 | 30453 ft | 472 kts | 129° |
| 2026-05-06 01:13 | 39.46385 | -108.59734 | 30637 ft | 473 kts | 129° |
| 2026-05-06 01:13 | 39.44298 | -108.56444 | 30831 ft | 473 kts | 129° |
| 2026-05-06 01:13 | 39.42212 | -108.53156 | 31044 ft | 472 kts | 129° |
| 2026-05-06 01:13 | 39.40128 | -108.49877 | 31267 ft | 472 kts | 129° |
| 2026-05-06 01:14 | 39.35957 | -108.43323 | 31675 ft | 471 kts | 129° |
| 2026-05-06 01:14 | 39.33876 | -108.40059 | 31928 ft | 469 kts | 129° |
| 2026-05-06 01:14 | 39.31802 | -108.36809 | 32168 ft | 468 kts | 129° |
| 2026-05-06 01:15 | 39.29759 | -108.33610 | 32378 ft | 468 kts | 129° |
| 2026-05-06 01:15 | 39.27690 | -108.30374 | 32615 ft | 466 kts | 130° |
| 2026-05-06 01:15 | 39.25628 | -108.27152 | 32856 ft | 465 kts | 130° |
| 2026-05-06 01:15 | 39.23571 | -108.23942 | 33078 ft | 464 kts | 130° |
| 2026-05-06 01:16 | 39.21517 | -108.20738 | 33271 ft | 463 kts | 130° |
| 2026-05-06 01:16 | 39.19460 | -108.17535 | 33422 ft | 464 kts | 130° |
| 2026-05-06 01:16 | 39.17401 | -108.14330 | 33602 ft | 463 kts | 130° |
| 2026-05-06 01:16 | 39.15345 | -108.11135 | 33753 ft | 463 kts | 130° |
| 2026-05-06 01:17 | 39.13287 | -108.07938 | 33893 ft | 464 kts | 130° |
| 2026-05-06 01:17 | 39.11220 | -108.04732 | 33956 ft | 465 kts | 130° |
| 2026-05-06 01:17 | 39.07061 | -107.98290 | 33999 ft | 470 kts | 130° |
| 2026-05-06 01:18 | 39.02886 | -107.91835 | 34000 ft | 473 kts | 130° |
| 2026-05-06 01:18 | 38.98682 | -107.85349 | 34002 ft | 471 kts | 130° |
| 2026-05-06 01:19 | 38.94493 | -107.78899 | 34001 ft | 468 kts | 130° |
| 2026-05-06 01:19 | 38.90316 | -107.72481 | 33999 ft | 468 kts | 130° |
| 2026-05-06 01:20 | 38.86138 | -107.66075 | 34002 ft | 467 kts | 130° |
| 2026-05-06 01:20 | 38.81982 | -107.59714 | 34000 ft | 464 kts | 130° |
| 2026-05-06 01:21 | 38.77827 | -107.53369 | 33997 ft | 466 kts | 130° |
| 2026-05-06 01:21 | 38.73637 | -107.46982 | 33998 ft | 470 kts | 130° |
| 2026-05-06 01:22 | 38.69434 | -107.40589 | 33999 ft | 469 kts | 130° |
| 2026-05-06 01:22 | 38.65246 | -107.34231 | 34001 ft | 472 kts | 130° |
| 2026-05-06 01:23 | 38.61017 | -107.27823 | 33999 ft | 471 kts | 130° |
| 2026-05-06 01:23 | 38.56780 | -107.21417 | 33998 ft | 471 kts | 130° |
| 2026-05-06 01:24 | 38.52544 | -107.15023 | 34000 ft | 470 kts | 130° |
| 2026-05-06 01:24 | 38.48324 | -107.08667 | 34001 ft | 469 kts | 130° |
| 2026-05-06 01:25 | 38.44254 | -107.02191 | 34001 ft | 468 kts | 126° |
| 2026-05-06 01:25 | 38.40429 | -106.95441 | 33997 ft | 469 kts | 126° |
| 2026-05-06 01:26 | 38.36677 | -106.88697 | 33999 ft | 470 kts | 125° |
| 2026-05-06 01:26 | 38.32886 | -106.81882 | 33996 ft | 471 kts | 126° |
| 2026-05-06 01:27 | 38.29087 | -106.75082 | 34002 ft | 471 kts | 126° |
| 2026-05-06 01:27 | 38.25285 | -106.68303 | 34000 ft | 470 kts | 126° |
| 2026-05-06 01:28 | 38.21478 | -106.61530 | 34001 ft | 471 kts | 126° |
| 2026-05-06 01:28 | 38.17659 | -106.54750 | 34000 ft | 472 kts | 126° |
| 2026-05-06 01:29 | 38.13830 | -106.47966 | 34001 ft | 471 kts | 126° |
| 2026-05-06 01:29 | 38.10016 | -106.41222 | 34001 ft | 470 kts | 126° |
| 2026-05-06 01:30 | 38.06223 | -106.34529 | 34000 ft | 470 kts | 126° |
| 2026-05-06 01:30 | 38.02395 | -106.27788 | 33998 ft | 471 kts | 126° |
| 2026-05-06 01:31 | 37.98559 | -106.21047 | 33999 ft | 470 kts | 126° |
| 2026-05-06 01:31 | 37.94735 | -106.14339 | 34001 ft | 468 kts | 126° |
| 2026-05-06 01:32 | 37.90918 | -106.07659 | 34001 ft | 467 kts | 126° |
| 2026-05-06 01:32 | 37.87127 | -106.01037 | 34001 ft | 467 kts | 126° |
| 2026-05-06 01:33 | 37.83309 | -105.94381 | 34001 ft | 467 kts | 126° |
| 2026-05-06 01:33 | 37.79489 | -105.87736 | 34000 ft | 467 kts | 126° |
| 2026-05-06 01:34 | 37.76307 | -105.82212 | 33998 ft | 467 kts | 126° |
| 2026-05-06 01:34 | 37.72481 | -105.75580 | 34000 ft | 467 kts | 126° |
| 2026-05-06 01:35 | 37.68643 | -105.68941 | 33998 ft | 467 kts | 126° |
| 2026-05-06 01:35 | 37.64809 | -105.62321 | 33999 ft | 467 kts | 126° |
| 2026-05-06 01:36 | 37.60967 | -105.55702 | 33997 ft | 468 kts | 126° |
| 2026-05-06 01:36 | 37.57099 | -105.49051 | 34000 ft | 472 kts | 126° |
| 2026-05-06 01:37 | 37.53194 | -105.42350 | 34003 ft | 474 kts | 126° |
| 2026-05-06 01:37 | 37.49300 | -105.35681 | 33998 ft | 470 kts | 126° |
| 2026-05-06 01:38 | 37.45427 | -105.29061 | 34000 ft | 469 kts | 127° |
| 2026-05-06 01:38 | 37.41577 | -105.22495 | 34000 ft | 470 kts | 127° |
| 2026-05-06 01:39 | 37.37682 | -105.15858 | 33997 ft | 472 kts | 124° |
| 2026-05-06 01:39 | 37.34312 | -105.08779 | 34044 ft | 471 kts | 123° |
| 2026-05-06 01:40 | 37.30320 | -105.02270 | 34001 ft | 471 kts | 130° |
| 2026-05-06 01:40 | 37.26128 | -104.95939 | 33997 ft | 470 kts | 129° |
| 2026-05-06 01:41 | 37.21674 | -104.88772 | 34001 ft | 468 kts | 127° |
| 2026-05-06 01:41 | 37.17801 | -104.82277 | 34001 ft | 467 kts | 127° |
| 2026-05-06 01:42 | 37.13930 | -104.75734 | 34002 ft | 466 kts | 127° |
| 2026-05-06 01:42 | 37.10061 | -104.69219 | 33997 ft | 466 kts | 127° |
| 2026-05-06 01:43 | 37.06176 | -104.62704 | 33997 ft | 466 kts | 127° |
| 2026-05-06 01:43 | 37.02315 | -104.56248 | 33997 ft | 466 kts | 127° |
| 2026-05-06 01:44 | 36.98420 | -104.49749 | 34001 ft | 467 kts | 127° |
| 2026-05-06 01:44 | 36.94513 | -104.43240 | 34001 ft | 468 kts | 127° |
| 2026-05-06 01:45 | 36.90602 | -104.36738 | 34001 ft | 467 kts | 127° |
| 2026-05-06 01:45 | 36.86700 | -104.30263 | 34001 ft | 467 kts | 127° |
| 2026-05-06 01:46 | 36.82788 | -104.23783 | 34001 ft | 467 kts | 127° |
| 2026-05-06 01:46 | 36.78876 | -104.17317 | 33997 ft | 467 kts | 127° |
| 2026-05-06 01:47 | 36.74954 | -104.10846 | 33998 ft | 466 kts | 127° |
| 2026-05-06 01:47 | 36.71068 | -104.04446 | 33998 ft | 466 kts | 127° |
| 2026-05-06 01:48 | 36.67153 | -103.98011 | 34001 ft | 466 kts | 127° |
| 2026-05-06 01:48 | 36.63236 | -103.91586 | 33999 ft | 466 kts | 127° |
| 2026-05-06 01:49 | 36.59318 | -103.85170 | 34001 ft | 465 kts | 127° |
| 2026-05-06 01:49 | 36.56057 | -103.79841 | 34001 ft | 465 kts | 127° |
| 2026-05-06 01:50 | 36.52135 | -103.73441 | 33997 ft | 465 kts | 127° |
| 2026-05-06 01:50 | 36.48214 | -103.67055 | 34001 ft | 464 kts | 127° |
| 2026-05-06 01:51 | 36.44291 | -103.60677 | 34001 ft | 464 kts | 127° |
| 2026-05-06 01:51 | 36.40368 | -103.54312 | 34001 ft | 463 kts | 128° |
| 2026-05-06 01:52 | 36.36471 | -103.48001 | 33998 ft | 463 kts | 128° |
| 2026-05-06 01:52 | 36.32553 | -103.41666 | 34001 ft | 463 kts | 128° |
| 2026-05-06 01:53 | 36.28628 | -103.35334 | 34002 ft | 463 kts | 128° |
| 2026-05-06 01:53 | 36.24705 | -103.29016 | 33998 ft | 462 kts | 128° |
| 2026-05-06 01:54 | 36.20780 | -103.22706 | 34001 ft | 462 kts | 128° |
| 2026-05-06 01:54 | 36.16854 | -103.16406 | 34000 ft | 462 kts | 128° |
| 2026-05-06 01:55 | 36.12955 | -103.10162 | 34000 ft | 461 kts | 128° |
| 2026-05-06 01:55 | 36.09023 | -103.03875 | 34001 ft | 461 kts | 128° |
| 2026-05-06 01:56 | 36.05096 | -102.97609 | 34001 ft | 461 kts | 128° |
| 2026-05-06 01:56 | 36.01165 | -102.91347 | 33999 ft | 461 kts | 128° |
| 2026-05-06 01:57 | 35.97236 | -102.85100 | 34000 ft | 461 kts | 128° |
| 2026-05-06 01:57 | 35.93299 | -102.78851 | 34001 ft | 460 kts | 128° |
| 2026-05-06 01:58 | 35.89363 | -102.72616 | 33998 ft | 460 kts | 128° |
| 2026-05-06 01:58 | 35.85425 | -102.66389 | 34001 ft | 460 kts | 128° |
| 2026-05-06 01:59 | 35.81488 | -102.60174 | 34001 ft | 460 kts | 128° |
| 2026-05-06 01:59 | 35.77574 | -102.54007 | 34001 ft | 460 kts | 128° |
| 2026-05-06 02:00 | 35.73627 | -102.47799 | 34001 ft | 459 kts | 128° |
| 2026-05-06 02:00 | 35.69686 | -102.41612 | 33997 ft | 459 kts | 128° |
| 2026-05-06 02:01 | 35.65736 | -102.35421 | 34001 ft | 459 kts | 128° |
| 2026-05-06 02:01 | 35.61783 | -102.29236 | 33997 ft | 459 kts | 128° |
| 2026-05-06 02:02 | 35.57856 | -102.23104 | 33999 ft | 459 kts | 128° |
| 2026-05-06 02:02 | 35.53903 | -102.16942 | 34001 ft | 459 kts | 128° |
| 2026-05-06 02:03 | 35.49952 | -102.10795 | 34001 ft | 459 kts | 128° |
| 2026-05-06 02:03 | 35.45992 | -102.04642 | 34001 ft | 458 kts | 128° |
| 2026-05-06 02:04 | 35.42035 | -101.98507 | 33999 ft | 458 kts | 128° |
| 2026-05-06 02:04 | 35.38093 | -101.92407 | 34001 ft | 459 kts | 128° |
| 2026-05-06 02:05 | 35.34129 | -101.86282 | 33999 ft | 459 kts | 128° |
| 2026-05-06 02:05 | 35.30162 | -101.80162 | 34000 ft | 459 kts | 128° |
| 2026-05-06 02:06 | 35.26184 | -101.74038 | 33997 ft | 459 kts | 129° |
| 2026-05-06 02:06 | 35.22217 | -101.67920 | 34001 ft | 459 kts | 128° |
| 2026-05-06 02:07 | 35.18263 | -101.61779 | 34001 ft | 459 kts | 128° |
| 2026-05-06 02:07 | 35.14304 | -101.55640 | 34001 ft | 459 kts | 128° |
| 2026-05-06 02:08 | 35.10349 | -101.49519 | 33999 ft | 459 kts | 128° |
| 2026-05-06 02:08 | 35.06387 | -101.43400 | 34000 ft | 459 kts | 128° |
| 2026-05-06 02:09 | 35.02427 | -101.37293 | 33998 ft | 459 kts | 128° |
| 2026-05-06 02:09 | 34.98453 | -101.31177 | 33999 ft | 459 kts | 128° |
| 2026-05-06 02:10 | 34.94505 | -101.25111 | 34000 ft | 459 kts | 128° |
| 2026-05-06 02:10 | 34.90536 | -101.19022 | 34002 ft | 458 kts | 129° |
| 2026-05-06 02:11 | 34.86569 | -101.12948 | 34001 ft | 458 kts | 129° |
| 2026-05-06 02:11 | 34.82598 | -101.06878 | 34000 ft | 457 kts | 129° |
| 2026-05-06 02:12 | 34.78655 | -101.00860 | 34000 ft | 457 kts | 129° |
| 2026-05-06 02:12 | 34.74683 | -100.94810 | 34000 ft | 457 kts | 129° |
| 2026-05-06 02:13 | 34.70711 | -100.88769 | 34001 ft | 457 kts | 129° |
| 2026-05-06 02:13 | 34.66738 | -100.82738 | 34001 ft | 457 kts | 129° |
| 2026-05-06 02:14 | 34.62765 | -100.76716 | 34001 ft | 456 kts | 129° |
| 2026-05-06 02:14 | 34.58793 | -100.70706 | 33998 ft | 456 kts | 129° |
| 2026-05-06 02:15 | 34.54820 | -100.64705 | 33998 ft | 456 kts | 129° |
| 2026-05-06 02:15 | 34.50864 | -100.58741 | 33997 ft | 456 kts | 129° |
| 2026-05-06 02:16 | 34.46879 | -100.52741 | 34001 ft | 456 kts | 129° |
| 2026-05-06 02:16 | 34.42893 | -100.46752 | 34000 ft | 456 kts | 129° |
| 2026-05-06 02:17 | 34.38904 | -100.40768 | 34001 ft | 456 kts | 129° |
| 2026-05-06 02:17 | 34.34913 | -100.34789 | 34001 ft | 456 kts | 129° |
| 2026-05-06 02:18 | 34.30948 | -100.28860 | 34001 ft | 456 kts | 129° |
| 2026-05-06 02:18 | 34.26958 | -100.22904 | 33999 ft | 456 kts | 129° |
| 2026-05-06 02:19 | 34.22962 | -100.16949 | 34000 ft | 456 kts | 129° |
| 2026-05-06 02:19 | 34.18962 | -100.10998 | 33999 ft | 456 kts | 129° |
| 2026-05-06 02:20 | 34.12963 | -100.02092 | 33999 ft | 456 kts | 129° |
| 2026-05-06 02:21 | 34.08981 | -99.96192 | 34000 ft | 456 kts | 129° |
| 2026-05-06 02:21 | 34.04977 | -99.90269 | 34001 ft | 456 kts | 129° |
| 2026-05-06 02:22 | 34.00964 | -99.84343 | 34001 ft | 456 kts | 129° |
| 2026-05-06 02:22 | 33.96951 | -99.78428 | 33999 ft | 456 kts | 129° |
| 2026-05-06 02:23 | 33.92938 | -99.72520 | 34001 ft | 455 kts | 129° |
| 2026-05-06 02:23 | 33.88921 | -99.66617 | 34000 ft | 455 kts | 129° |
| 2026-05-06 02:24 | 33.84902 | -99.60721 | 34001 ft | 455 kts | 129° |
| 2026-05-06 02:24 | 33.80886 | -99.54839 | 34000 ft | 455 kts | 129° |
| 2026-05-06 02:25 | 33.76868 | -99.48964 | 33999 ft | 455 kts | 129° |
| 2026-05-06 02:25 | 33.72871 | -99.43129 | 34001 ft | 455 kts | 129° |
| 2026-05-06 02:26 | 33.68847 | -99.37264 | 34000 ft | 455 kts | 129° |
| 2026-05-06 02:26 | 33.64820 | -99.31404 | 33999 ft | 455 kts | 130° |
| 2026-05-06 02:27 | 33.60789 | -99.25548 | 34001 ft | 455 kts | 130° |
| 2026-05-06 02:27 | 33.56750 | -99.19690 | 34001 ft | 455 kts | 130° |
| 2026-05-06 02:28 | 33.52715 | -99.13848 | 34002 ft | 455 kts | 130° |